Terminal Aerodrome Forecast
Issued by NWS

Home | Current Version | Previous Version | Graphics & Text | Print | Product List | Glossary On
Versions: 1 2 3 4 5 6 7 8 9 10 11 12 13 14 15 16
010
FTUS43 KICT 160720 AAA
TAFSLN
TAF AMD
KSLN 160720Z 1607/1706 32010KT P6SM SCT035
      TEMPO 1607/1609 BKN035
     FM161900 33009KT P6SM SCT150
     FM170100 31004KT P6SM SKC=

USA.gov is the U.S. government's official web portal to all federal, state and local government web resources and services.